createdAt,value
2024-04-15T00:01:58.631Z,4.57
2024-04-15T00:04:25.162Z,4.53
2024-04-15T00:06:51.670Z,5.25
2024-04-15T00:09:18.153Z,3.95
2024-04-15T00:11:47.743Z,5.80
2024-04-15T00:14:14.277Z,8.53
2024-04-15T00:16:40.905Z,6.05
2024-04-15T00:19:07.493Z,6.38
2024-04-15T00:21:34.050Z,5.60
2024-04-15T00:24:00.570Z,5.93
2024-04-15T00:26:27.060Z,5.00
2024-04-15T00:28:54.511Z,6.57
2024-04-15T00:31:21.036Z,6.60
2024-04-15T00:33:47.906Z,5.90
2024-04-15T00:36:14.474Z,6.50
2024-04-15T00:38:41.002Z,7.57
2024-04-15T00:41:07.480Z,4.80
2024-04-15T00:43:33.939Z,5.93
2024-04-15T00:46:00.514Z,5.93
2024-04-15T00:48:27.293Z,5.70
2024-04-15T00:50:53.945Z,4.90
2024-04-15T00:53:21.940Z,4.63
2024-04-15T00:55:52.223Z,6.13
2024-04-15T00:58:20.931Z,6.82
2024-04-15T01:00:48.433Z,7.07
2024-04-15T01:03:15.508Z,7.67
2024-04-15T01:05:42.437Z,3.47
2024-04-15T01:08:09.835Z,7.15
2024-04-15T01:13:05.761Z,6.28
2024-04-15T01:15:32.325Z,6.77
2024-04-15T01:17:58.880Z,5.80
2024-04-15T01:20:25.410Z,8.85
2024-04-15T01:23:15.615Z,2.83
2024-04-15T01:25:42.328Z,4.78
2024-04-15T01:28:09.026Z,5.67
2024-04-15T01:30:35.578Z,8.48
2024-04-15T01:33:02.395Z,7.72
2024-04-15T01:35:29.017Z,6.72
2024-04-15T01:37:55.519Z,7.90
2024-04-15T01:40:22.112Z,7.17
2024-04-15T01:42:48.755Z,4.90
2024-04-15T01:45:15.365Z,6.60
2024-04-15T01:47:42.085Z,4.68
2024-04-15T01:50:08.661Z,7.75
2024-04-15T01:52:35.223Z,6.07
2024-04-15T01:55:01.694Z,4.43
2024-04-15T01:57:28.457Z,8.13
2024-04-15T01:59:55.008Z,7.10
2024-04-15T02:02:21.687Z,6.18
2024-04-15T02:04:48.274Z,5.90
2024-04-15T02:07:15.216Z,10.05
2024-04-15T02:09:41.824Z,5.38
2024-04-15T02:12:08.917Z,7.35
2024-04-15T02:14:35.418Z,7.85
2024-04-15T02:17:01.881Z,6.73
2024-04-15T02:19:28.327Z,9.05
2024-04-15T02:21:54.830Z,5.72
2024-04-15T02:24:21.305Z,9.40
2024-04-15T02:26:47.891Z,10.65
2024-04-15T02:29:14.380Z,9.20
2024-04-15T02:31:40.933Z,5.57
2024-04-15T02:34:07.530Z,8.32
2024-04-15T02:36:34.148Z,6.68
2024-04-15T02:39:00.633Z,6.45
2024-04-15T02:41:27.190Z,9.77
2024-04-15T02:43:53.688Z,5.93
2024-04-15T02:46:20.236Z,9.68
2024-04-15T02:48:46.830Z,4.25
2024-04-15T02:51:13.349Z,7.70
2024-04-15T02:53:39.885Z,7.40
2024-04-15T02:56:06.473Z,8.32
2024-04-15T02:58:33.009Z,12.10
2024-04-15T03:00:59.686Z,7.43
2024-04-15T03:03:26.328Z,8.55
2024-04-15T03:05:52.778Z,8.27
2024-04-15T03:08:19.269Z,5.25
2024-04-15T03:10:45.917Z,9.68
2024-04-15T03:13:13.080Z,6.82
2024-04-15T03:15:39.683Z,10.35
2024-04-15T03:18:06.374Z,9.00
2024-04-15T03:20:33.004Z,8.05
2024-04-15T03:22:59.492Z,6.55
2024-04-15T03:25:26.020Z,7.95
2024-04-15T03:27:52.888Z,5.70
2024-04-15T03:30:19.452Z,8.57
2024-04-15T03:32:46.216Z,5.82
2024-04-15T03:35:14.533Z,6.68
2024-04-15T03:37:41.774Z,12.23
2024-04-15T03:40:08.867Z,8.00
2024-04-15T03:42:35.380Z,11.27
2024-04-15T03:45:01.861Z,9.45
2024-04-15T03:47:28.437Z,10.90
2024-04-15T03:49:54.999Z,12.32
2024-04-15T03:52:21.568Z,8.88
2024-04-15T03:54:48.248Z,8.90
2024-04-15T03:57:14.798Z,11.63
2024-04-15T03:59:41.325Z,8.82
2024-04-15T04:02:07.885Z,13.32
2024-04-15T04:04:34.493Z,9.23
2024-04-15T04:07:03.941Z,12.13
2024-04-15T04:09:30.481Z,11.60
2024-04-15T04:11:57.069Z,8.95
2024-04-15T04:14:25.286Z,12.15
2024-04-15T04:16:51.776Z,10.07
2024-04-15T04:19:25.386Z,12.20
2024-04-15T04:21:52.399Z,12.77
2024-04-15T04:24:18.935Z,10.45
2024-04-15T04:26:45.498Z,10.93
2024-04-15T04:29:12.034Z,9.73
2024-04-15T04:31:39.295Z,11.20
2024-04-15T04:34:05.898Z,14.38
2024-04-15T04:36:32.638Z,10.27
2024-04-15T04:38:59.177Z,12.20
2024-04-15T04:41:25.748Z,10.00
2024-04-15T04:43:52.294Z,11.33
2024-04-15T04:46:19.137Z,14.48
2024-04-15T04:48:45.734Z,9.95
2024-04-15T04:51:12.695Z,6.13
2024-04-15T04:53:39.259Z,12.98
2024-04-15T04:56:11.284Z,11.27
2024-04-15T04:58:38.575Z,10.93
2024-04-15T05:01:12.604Z,9.55
2024-04-15T05:03:46.398Z,9.65
2024-04-15T05:06:14.813Z,11.13
2024-04-15T05:08:42.335Z,9.50
2024-04-15T05:11:08.910Z,6.03
2024-04-15T05:13:36.210Z,17.30
2024-04-15T05:16:13.536Z,11.43
2024-04-15T05:18:41.512Z,12.38
2024-04-15T05:21:16.225Z,10.77
2024-04-15T05:23:42.978Z,11.57
2024-04-15T05:26:09.935Z,8.63
2024-04-15T05:28:36.424Z,13.25
2024-04-15T05:31:03.604Z,14.18
2024-04-15T05:33:30.106Z,16.00
2024-04-15T05:35:56.933Z,13.05
2024-04-15T05:38:23.429Z,12.13
2024-04-15T05:40:49.996Z,12.18
2024-04-15T05:43:16.584Z,10.82
2024-04-15T05:45:43.204Z,8.47
2024-04-15T05:48:09.985Z,17.27
2024-04-15T05:50:36.777Z,11.23
2024-04-15T05:53:03.317Z,13.90
2024-04-15T05:55:29.946Z,10.95
2024-04-15T05:57:56.539Z,10.33
2024-04-15T06:00:23.172Z,8.98
2024-04-15T06:02:49.771Z,10.93
2024-04-15T06:05:16.621Z,11.68
2024-04-15T06:07:43.358Z,9.52
2024-04-15T06:10:10.086Z,9.13
2024-04-15T06:12:36.622Z,15.73
2024-04-15T06:15:03.282Z,12.38
2024-04-15T06:17:29.868Z,13.10
2024-04-15T06:19:56.311Z,9.90
2024-04-15T06:22:22.856Z,10.20
2024-04-15T06:24:49.529Z,10.85
2024-04-15T06:27:16.082Z,9.63
2024-04-15T06:29:42.602Z,12.05
2024-04-15T06:32:09.394Z,10.65
2024-04-15T06:34:35.867Z,11.70
2024-04-15T06:37:02.470Z,8.98
2024-04-15T06:39:29.099Z,12.10
2024-04-15T06:41:55.631Z,7.68
2024-04-15T06:44:22.175Z,10.45
2024-04-15T06:46:48.753Z,13.03
2024-04-15T06:49:16.316Z,9.73
2024-04-15T06:51:42.810Z,9.98
2024-04-15T06:54:09.294Z,9.35
2024-04-15T06:56:37.694Z,12.80
2024-04-15T06:59:04.232Z,5.83
2024-04-15T07:01:33.633Z,7.63
2024-04-15T07:04:02.460Z,7.80
2024-04-15T07:06:29.029Z,8.98
2024-04-15T07:08:55.558Z,8.30
2024-04-15T07:11:22.187Z,9.50
2024-04-15T07:13:48.990Z,7.35
2024-04-15T07:16:15.563Z,9.30
2024-04-15T07:18:42.255Z,10.35
2024-04-15T07:21:08.827Z,8.75
2024-04-15T07:23:35.318Z,8.97
2024-04-15T07:26:02.368Z,9.65
2024-04-15T07:28:29.191Z,9.10
2024-04-15T07:31:03.313Z,4.30
2024-04-15T07:33:29.990Z,4.35
2024-04-15T07:35:58.167Z,11.53
2024-04-15T07:38:25.031Z,9.93
2024-04-15T07:40:51.681Z,8.60
2024-04-15T07:43:18.135Z,8.32
2024-04-15T07:45:45.529Z,8.75
2024-04-15T07:48:12.215Z,6.63
2024-04-15T07:50:38.799Z,15.60
2024-04-15T07:53:05.350Z,7.00
2024-04-15T07:55:31.852Z,12.68
2024-04-15T07:57:58.637Z,9.15
2024-04-15T08:00:25.239Z,7.80
2024-04-15T08:02:51.958Z,11.88
2024-04-15T08:05:18.462Z,11.50
2024-04-15T08:07:45.318Z,9.45
2024-04-15T08:10:12.119Z,13.52
2024-04-15T08:12:39.512Z,11.33
2024-04-15T08:15:07.104Z,10.43
2024-04-15T08:17:33.690Z,9.23
2024-04-15T08:20:00.316Z,12.52
2024-04-15T08:22:27.014Z,9.40
2024-04-15T08:24:53.595Z,9.83
2024-04-15T08:27:20.122Z,13.77
2024-04-15T08:29:46.802Z,11.20
2024-04-15T08:32:13.391Z,11.07
2024-04-15T08:34:39.958Z,9.93
2024-04-15T08:37:06.564Z,13.03
2024-04-15T08:39:33.124Z,8.20
2024-04-15T08:42:20.104Z,7.70
2024-04-15T08:44:47.254Z,13.27
2024-04-15T08:47:23.627Z,16.02
2024-04-15T08:49:50.812Z,9.03
2024-04-15T08:52:18.360Z,9.88
2024-04-15T08:54:45.071Z,17.08
2024-04-15T08:57:12.171Z,10.95
2024-04-15T08:59:40.419Z,7.57
2024-04-15T09:02:07.409Z,14.77
2024-04-15T09:04:34.812Z,10.73
2024-04-15T09:07:01.802Z,10.52
2024-04-15T09:09:28.293Z,8.68
2024-04-15T09:11:55.682Z,12.45
2024-04-15T09:14:22.604Z,9.93
2024-04-15T09:16:49.439Z,7.55
2024-04-15T09:19:16.188Z,7.95
2024-04-15T09:21:42.729Z,12.05
2024-04-15T09:24:10.458Z,10.98
2024-04-15T09:26:39.822Z,10.57
2024-04-15T09:29:08.032Z,10.07
2024-04-15T09:31:34.585Z,16.27
2024-04-15T09:34:01.156Z,10.38
2024-04-15T09:36:27.664Z,15.60
2024-04-15T09:38:55.547Z,13.63
2024-04-15T09:41:23.199Z,9.15
2024-04-15T09:43:52.352Z,11.40
2024-04-15T09:46:21.028Z,10.38
2024-04-15T09:48:49.573Z,8.15
2024-04-15T09:51:23.239Z,10.67
2024-04-15T09:53:54.177Z,12.13
2024-04-15T09:56:26.812Z,11.98
2024-04-15T09:58:55.363Z,11.88
2024-04-15T10:01:26.886Z,10.18
2024-04-15T10:03:54.395Z,9.47
2024-04-15T10:06:31.308Z,14.65
2024-04-15T10:08:59.797Z,6.57
2024-04-15T10:11:28.827Z,11.65
2024-04-15T10:13:55.872Z,5.63
2024-04-15T10:16:35.403Z,9.00
2024-04-15T10:19:05.340Z,6.20
2024-04-15T10:21:32.659Z,5.80
2024-04-15T10:23:59.122Z,13.00
2024-04-15T10:26:27.401Z,14.60
2024-04-15T10:29:12.119Z,9.37
2024-04-15T10:31:42.301Z,8.75
2024-04-15T10:34:09.221Z,10.00
2024-04-15T10:36:39.809Z,14.15
2024-04-15T10:39:06.352Z,13.10
2024-04-15T10:41:34.977Z,14.33
2024-04-15T10:44:01.530Z,9.27
2024-04-15T10:46:28.489Z,12.40
2024-04-15T10:48:56.042Z,14.95
2024-04-15T10:51:22.713Z,10.85
2024-04-15T10:53:51.592Z,12.00
2024-04-15T10:56:19.858Z,10.73
2024-04-15T10:58:46.755Z,11.32
2024-04-15T11:01:16.759Z,10.35
2024-04-15T11:03:44.249Z,14.70
2024-04-15T11:06:10.987Z,6.33
2024-04-15T11:08:37.690Z,6.30
2024-04-15T11:11:04.938Z,8.98
2024-04-15T11:13:31.624Z,7.47
2024-04-15T11:15:59.614Z,8.23
2024-04-15T11:18:26.378Z,11.23
2024-04-15T11:20:59.817Z,5.18
2024-04-15T11:23:26.491Z,9.82
2024-04-15T11:25:53.731Z,6.97
2024-04-15T11:28:20.972Z,4.22
2024-04-15T11:30:48.143Z,6.50
2024-04-15T11:33:15.532Z,6.82
2024-04-15T11:35:51.811Z,6.38
2024-04-15T11:38:18.562Z,5.85
2024-04-15T11:40:45.835Z,7.68
2024-04-15T11:43:12.491Z,5.73
2024-04-15T11:45:49.896Z,7.72
2024-04-15T11:48:16.458Z,8.20
2024-04-15T11:50:44.078Z,10.27
2024-04-15T11:53:10.623Z,9.68
2024-04-15T11:55:37.430Z,10.20
2024-04-15T11:58:04.240Z,10.20
2024-04-15T12:00:30.745Z,10.52
2024-04-15T12:02:57.462Z,8.40
2024-04-15T12:05:27.411Z,10.75
2024-04-15T12:07:54.198Z,9.13
2024-04-15T12:10:20.809Z,9.68
2024-04-15T12:12:47.448Z,9.85
2024-04-15T12:15:14.925Z,5.90
2024-04-15T12:17:41.504Z,14.05
2024-04-15T12:20:08.153Z,8.30
2024-04-15T12:22:34.688Z,10.35
2024-04-15T12:25:07.622Z,8.25
2024-04-15T12:27:38.663Z,7.05
2024-04-15T12:30:07.261Z,10.95
2024-04-15T12:32:34.886Z,5.57
2024-04-15T12:35:01.525Z,4.63
2024-04-15T12:37:28.158Z,3.60
2024-04-15T12:39:54.856Z,4.18
2024-04-15T12:42:21.406Z,3.88
2024-04-15T12:44:47.919Z,5.20
2024-04-15T12:47:14.508Z,4.55
2024-04-15T12:49:41.173Z,4.28
2024-04-15T12:52:10.956Z,2.70
2024-04-15T12:54:38.252Z,3.22
2024-04-15T12:57:05.183Z,3.47
2024-04-15T12:59:34.467Z,2.53
2024-04-15T13:02:07.346Z,3.20
2024-04-15T13:04:36.473Z,4.07
2024-04-15T13:07:03.680Z,3.28
2024-04-15T13:09:30.747Z,3.20
2024-04-15T13:11:57.400Z,3.92
2024-04-15T13:14:23.942Z,3.97
2024-04-15T13:16:51.769Z,2.50
2024-04-15T13:19:18.476Z,1.83
2024-04-15T13:21:45.654Z,2.53
2024-04-15T13:24:12.192Z,2.67
2024-04-15T13:26:39.003Z,3.53
2024-04-15T13:29:07.415Z,3.53
2024-04-15T13:31:34.142Z,3.33
2024-04-15T13:34:01.452Z,2.30
2024-04-15T13:36:28.515Z,2.60
2024-04-15T13:38:55.408Z,2.70
2024-04-15T13:41:22.072Z,1.40
2024-04-15T13:43:49.235Z,3.72
2024-04-15T13:46:16.001Z,4.23
2024-04-15T13:48:42.548Z,3.55
2024-04-15T13:51:09.064Z,3.38
2024-04-15T13:53:35.565Z,2.42
2024-04-15T13:56:02.087Z,3.53
2024-04-15T13:58:29.138Z,2.70
2024-04-15T14:00:55.887Z,3.63
2024-04-15T14:03:22.604Z,3.45
2024-04-15T14:05:50.777Z,2.97
2024-04-15T14:08:17.686Z,4.13
2024-04-15T14:10:45.288Z,5.20
2024-04-15T14:13:12.033Z,2.20
2024-04-15T14:15:38.731Z,1.27
2024-04-15T14:18:06.081Z,4.90
2024-04-15T14:20:32.914Z,2.38
2024-04-15T14:22:59.503Z,2.60
2024-04-15T14:25:26.435Z,1.55
2024-04-15T14:27:53.128Z,3.65
2024-04-15T14:30:19.612Z,2.30
2024-04-15T14:32:46.248Z,2.70
2024-04-15T14:35:13.125Z,1.90
2024-04-15T14:37:39.592Z,6.00
2024-04-15T14:40:19.560Z,5.18
2024-04-15T14:42:49.947Z,3.10
2024-04-15T14:45:16.533Z,3.25
2024-04-15T14:47:43.114Z,2.00
2024-04-15T14:50:11.010Z,4.90
2024-04-15T14:52:37.517Z,6.20
2024-04-15T14:55:04.450Z,6.22
2024-04-15T14:57:31.131Z,6.50
2024-04-15T14:59:57.609Z,4.83
2024-04-15T15:02:24.217Z,4.78
2024-04-15T15:04:50.786Z,3.08
2024-04-15T15:07:17.387Z,6.63
2024-04-15T15:09:43.965Z,4.32
2024-04-15T15:12:10.577Z,3.63
2024-04-15T15:14:37.595Z,3.40
2024-04-15T15:17:04.854Z,3.13
2024-04-15T15:19:32.057Z,5.53
2024-04-15T15:21:58.590Z,4.65
2024-04-15T15:24:25.070Z,5.03
2024-04-15T15:26:51.575Z,4.25
2024-04-15T15:29:18.110Z,9.85
2024-04-15T15:31:44.680Z,4.97
2024-04-15T15:34:11.396Z,7.03
2024-04-15T15:36:38.304Z,1.87
2024-04-15T15:39:07.699Z,6.07
2024-04-15T15:41:34.794Z,6.90
2024-04-15T15:44:01.428Z,6.47
2024-04-15T15:46:28.239Z,11.35
2024-04-15T15:48:54.895Z,5.50
2024-04-15T15:51:21.369Z,6.75
2024-04-15T15:53:47.913Z,5.32
2024-04-15T15:56:16.538Z,4.35
2024-04-15T15:58:44.116Z,5.32
2024-04-15T16:01:10.774Z,7.07
2024-04-15T16:03:37.524Z,6.30
2024-04-15T16:06:05.187Z,4.82
2024-04-15T16:08:31.907Z,12.15
2024-04-15T16:10:58.587Z,6.90
2024-04-15T16:13:25.249Z,5.40
2024-04-15T16:15:52.197Z,3.90
2024-04-15T16:18:18.844Z,5.05
2024-04-15T16:20:48.665Z,5.47
2024-04-15T16:23:15.175Z,5.43
2024-04-15T16:25:41.742Z,5.53
2024-04-15T16:28:08.706Z,3.67
2024-04-15T16:30:35.189Z,4.93
2024-04-15T16:33:01.784Z,8.32
2024-04-15T16:35:28.320Z,6.22
2024-04-15T16:37:54.925Z,6.90
2024-04-15T16:40:21.601Z,4.72
2024-04-15T16:42:48.139Z,4.07
2024-04-15T16:45:14.959Z,3.40
2024-04-15T16:47:41.990Z,4.05
2024-04-15T16:50:08.572Z,3.23
2024-04-15T16:52:35.148Z,3.88
2024-04-15T16:55:01.744Z,4.03
2024-04-15T16:57:28.343Z,4.88
2024-04-15T16:59:54.838Z,4.55
2024-04-15T17:02:21.333Z,4.93
2024-04-15T17:04:47.996Z,4.57
2024-04-15T17:07:14.799Z,3.72
2024-04-15T17:09:41.359Z,6.30
2024-04-15T17:12:07.978Z,6.10
2024-04-15T17:14:34.639Z,6.87
2024-04-15T17:17:01.307Z,11.38
2024-04-15T17:19:28.012Z,6.43
2024-04-15T17:21:54.687Z,3.95
2024-04-15T17:24:21.202Z,7.47
2024-04-15T17:26:49.389Z,4.30
2024-04-15T17:29:15.866Z,5.13
2024-04-15T17:31:42.471Z,5.05
2024-04-15T17:34:09.113Z,4.30
2024-04-15T17:36:35.898Z,4.15
2024-04-15T17:39:02.549Z,11.13
2024-04-15T17:41:29.106Z,4.35
2024-04-15T17:43:56.254Z,3.80
2024-04-15T17:46:23.060Z,4.60
2024-04-15T17:48:49.677Z,6.97
2024-04-15T17:51:16.349Z,6.03
2024-04-15T17:53:42.877Z,6.13
2024-04-15T17:56:09.504Z,6.05
2024-04-15T17:58:36.201Z,4.97
2024-04-15T18:01:02.818Z,7.07
2024-04-15T18:03:29.366Z,7.17
2024-04-15T18:05:55.971Z,7.78
2024-04-15T18:08:22.511Z,5.78
2024-04-15T18:10:49.081Z,6.75
2024-04-15T18:13:15.682Z,5.28
2024-04-15T18:15:42.394Z,3.80
2024-04-15T18:18:09.247Z,3.08
2024-04-15T18:20:35.756Z,5.07
2024-04-15T18:23:02.313Z,4.18
2024-04-15T18:25:29.083Z,3.83
2024-04-15T18:27:55.801Z,3.47
2024-04-15T18:30:22.329Z,2.97
2024-04-15T18:32:49.051Z,3.00
2024-04-15T18:35:15.715Z,3.10
2024-04-15T18:37:42.324Z,3.75
2024-04-15T18:40:09.489Z,3.33
2024-04-15T18:42:36.064Z,2.97
2024-04-15T18:45:06.892Z,7.28
2024-04-15T18:47:35.052Z,3.70
2024-04-15T18:50:01.663Z,5.95
2024-04-15T18:52:28.415Z,3.60
2024-04-15T18:54:55.108Z,2.58
2024-04-15T18:57:21.757Z,2.00
2024-04-15T18:59:48.294Z,2.55
2024-04-15T19:02:14.919Z,1.98
2024-04-15T19:04:41.532Z,1.90
2024-04-15T19:07:08.527Z,1.98
2024-04-15T19:09:35.046Z,2.50
2024-04-15T19:12:01.946Z,2.15
2024-04-15T19:14:37.331Z,1.70
2024-04-15T19:17:13.097Z,3.17
2024-04-15T19:19:39.724Z,1.08
2024-04-15T19:22:06.454Z,2.92
2024-04-15T19:24:33.143Z,1.63
2024-04-15T19:26:59.820Z,4.50
2024-04-15T19:29:26.332Z,2.30
2024-04-15T19:31:52.993Z,2.25
2024-04-15T19:34:19.634Z,3.35
2024-04-15T19:36:46.352Z,2.63
2024-04-15T19:39:12.999Z,1.67
2024-04-15T19:41:40.022Z,1.80
2024-04-15T19:44:06.898Z,1.45
2024-04-15T19:46:33.592Z,3.45
2024-04-15T19:49:00.666Z,1.65
2024-04-15T19:51:27.236Z,2.13
2024-04-15T19:53:53.904Z,4.13
2024-04-15T19:56:20.407Z,2.97
2024-04-15T19:58:47.008Z,2.55
2024-04-15T20:01:13.622Z,2.67
2024-04-15T20:03:40.300Z,3.10
2024-04-15T20:06:08.110Z,9.23
2024-04-15T20:08:35.157Z,3.40
2024-04-15T20:11:01.777Z,4.72
2024-04-15T20:13:28.466Z,2.75
2024-04-15T20:15:55.182Z,5.55
2024-04-15T20:18:21.822Z,3.63
2024-04-15T20:20:48.528Z,5.28
2024-04-15T20:23:16.750Z,4.93
2024-04-15T20:25:47.079Z,7.22
2024-04-15T20:28:13.737Z,4.10
2024-04-15T20:30:41.116Z,6.30
2024-04-15T20:33:07.745Z,6.05
2024-04-15T20:35:34.386Z,4.70
2024-04-15T20:38:00.873Z,3.53
2024-04-15T20:40:35.399Z,3.55
2024-04-15T20:43:07.767Z,1.87
2024-04-15T20:45:34.307Z,3.90
2024-04-15T20:48:01.027Z,2.83
2024-04-15T20:50:27.697Z,3.00
2024-04-15T20:52:57.395Z,4.30
2024-04-15T20:55:23.998Z,3.27
2024-04-15T20:57:50.640Z,5.07
2024-04-15T21:00:17.227Z,4.43
2024-04-15T21:02:43.841Z,3.42
2024-04-15T21:05:10.547Z,4.32
2024-04-15T21:07:37.178Z,3.93
2024-04-15T21:10:03.956Z,2.47
2024-04-15T21:12:30.574Z,2.65
2024-04-15T21:14:57.144Z,2.65
2024-04-15T21:17:23.742Z,2.60
2024-04-15T21:19:50.349Z,4.90
2024-04-15T21:22:16.883Z,4.03
2024-04-15T21:24:43.482Z,2.65
2024-04-15T21:27:10.061Z,3.28
2024-04-15T21:29:37.715Z,2.00
2024-04-15T21:32:04.460Z,3.07
2024-04-15T21:34:31.271Z,2.75
2024-04-15T21:36:58.040Z,3.42
2024-04-15T21:39:24.707Z,3.10
2024-04-15T21:41:51.458Z,3.75
2024-04-15T21:44:19.071Z,3.03
2024-04-15T21:46:45.642Z,3.95
2024-04-15T21:49:13.283Z,3.33
2024-04-15T21:51:39.880Z,4.43
2024-04-15T21:54:06.821Z,5.45
2024-04-15T21:56:33.418Z,3.13
2024-04-15T21:58:59.982Z,4.20
2024-04-15T22:01:26.626Z,5.03
2024-04-15T22:03:54.646Z,4.15
2024-04-15T22:06:22.504Z,5.20
2024-04-15T22:08:49.016Z,2.23
2024-04-15T22:11:15.664Z,4.18
2024-04-15T22:13:42.270Z,4.78
2024-04-15T22:16:08.784Z,4.63
2024-04-15T22:18:35.347Z,2.63
2024-04-15T22:21:13.124Z,4.17
2024-04-15T22:26:25.577Z,4.43
2024-04-15T22:28:52.136Z,5.80
2024-04-15T22:31:18.839Z,10.23
2024-04-15T22:33:45.477Z,6.30
2024-04-15T22:36:12.909Z,9.38
2024-04-15T22:38:40.457Z,8.88
2024-04-15T22:41:07.031Z,6.43
2024-04-15T22:43:33.601Z,5.40
2024-04-15T22:46:00.300Z,6.77
2024-04-15T22:48:26.965Z,10.57
2024-04-15T22:50:53.504Z,7.30
2024-04-15T22:53:20.124Z,9.80
2024-04-15T22:55:46.805Z,8.38
2024-04-15T22:58:13.401Z,7.73
2024-04-15T23:00:40.058Z,9.77
2024-04-15T23:03:06.686Z,7.13
2024-04-15T23:05:33.237Z,7.63
2024-04-15T23:07:59.921Z,4.25
2024-04-15T23:10:27.682Z,7.77
2024-04-15T23:12:54.323Z,7.28
2024-04-15T23:15:20.854Z,11.90
2024-04-15T23:17:47.480Z,10.27
2024-04-15T23:20:14.177Z,6.68
2024-04-15T23:22:40.885Z,7.60
2024-04-15T23:25:07.667Z,11.07
2024-04-15T23:27:34.143Z,8.75
2024-04-15T23:30:00.679Z,8.20
2024-04-15T23:32:27.345Z,5.43
2024-04-15T23:34:53.937Z,11.20
2024-04-15T23:37:20.551Z,7.63
2024-04-15T23:39:47.275Z,10.27
2024-04-15T23:42:13.926Z,7.63
2024-04-15T23:44:40.944Z,8.73
2024-04-15T23:47:07.548Z,12.30
2024-04-15T23:49:34.145Z,7.05
2024-04-15T23:52:00.810Z,8.85
2024-04-15T23:54:27.301Z,11.40
2024-04-15T23:56:53.845Z,9.38
2024-04-15T23:59:20.543Z,8.43
